createdAt,value
2019-02-25T00:01:56.978Z,67.20
2019-02-25T00:05:19.331Z,68.30
2019-02-25T00:07:48.984Z,68.70
2019-02-25T00:10:42.146Z,69.00
2019-02-25T00:13:18.087Z,69.40
2019-02-25T00:19:13.544Z,70.50
2019-02-25T00:21:46.249Z,71.30
2019-02-25T00:24:32.476Z,72.40
2019-02-25T00:27:12.244Z,72.80
2019-02-25T00:29:44.403Z,73.60
2019-02-25T00:32:15.159Z,74.50
2019-02-25T00:34:45.756Z,73.90
2019-02-25T00:37:46.441Z,74.20
2019-02-25T00:40:41.749Z,74.70
2019-02-25T00:43:44.280Z,75.50
2019-02-25T00:46:21.635Z,76.40
2019-02-25T00:49:12.884Z,76.20
2019-02-25T00:51:47.607Z,76.80
2019-02-25T00:54:43.834Z,76.10
2019-02-25T00:57:39.974Z,76.10
2019-02-25T01:00:14.183Z,76.20
2019-02-25T01:03:20.614Z,76.70
2019-02-25T01:07:29.724Z,77.20
2019-02-25T01:08:48.716Z,77.80
2019-02-25T01:11:31.859Z,78.20
2019-02-25T01:14:25.239Z,77.10
2019-02-25T01:17:18.372Z,77.00
2019-02-25T01:19:54.922Z,76.90
2019-02-25T01:22:44.705Z,76.20
2019-02-25T01:25:23.605Z,75.60
2019-02-25T01:28:31.578Z,74.80
2019-02-25T01:31:10.661Z,74.70
2019-02-25T01:33:48.849Z,74.60
2019-02-25T01:36:28.328Z,74.20
2019-02-25T01:39:23.181Z,74.20
2019-02-25T01:41:48.447Z,74.40
2019-02-25T01:44:19.304Z,74.20
2019-02-25T01:46:58.046Z,73.50
2019-02-25T01:49:44.722Z,73.90
2019-02-25T01:52:20.510Z,72.90
2019-02-25T01:55:18.531Z,72.70
2019-02-25T01:57:49.534Z,71.00
2019-02-25T02:00:45.565Z,70.10
2019-02-25T02:03:45.770Z,69.90
2019-02-25T02:09:55.402Z,69.40
2019-02-25T02:13:20.621Z,68.90
2019-02-25T02:16:19.012Z,68.90
2019-02-25T02:18:23.097Z,68.70
2019-02-25T02:21:11.267Z,68.50
2019-02-25T02:23:48.770Z,68.60
2019-02-25T02:26:22.959Z,68.70
2019-02-25T02:28:53.789Z,69.50
2019-02-25T02:31:43.185Z,69.90
2019-02-25T02:34:24.519Z,70.10
2019-02-25T02:37:13.714Z,70.30
2019-02-25T02:40:09.009Z,70.90
2019-02-25T02:42:26.000Z,71.10
2019-02-25T02:45:46.148Z,71.20
2019-02-25T02:48:55.358Z,71.60
2019-02-25T02:51:58.909Z,71.60
2019-02-25T02:54:42.991Z,72.00
2019-02-25T02:57:16.737Z,71.60
2019-02-25T02:59:55.558Z,71.80
2019-02-25T03:02:57.918Z,72.10
2019-02-25T03:05:54.109Z,72.00
2019-02-25T03:11:28.102Z,73.80
2019-02-25T03:13:59.143Z,74.30
2019-02-25T03:16:51.742Z,74.60
2019-02-25T03:19:30.204Z,74.20
2019-02-25T03:22:24.187Z,74.10
2019-02-25T03:24:55.940Z,74.30
2019-02-25T03:27:27.345Z,74.90
2019-02-25T03:30:25.906Z,74.00
2019-02-25T03:33:03.314Z,73.60
2019-02-25T03:35:50.414Z,73.00
2019-02-25T03:38:23.018Z,72.10
2019-02-25T03:41:23.284Z,71.20
2019-02-25T03:43:54.635Z,71.50
2019-02-25T03:46:55.238Z,71.70
2019-02-25T03:49:29.700Z,71.50
2019-02-25T03:52:13.574Z,71.40
2019-02-25T03:57:45.998Z,70.60
2019-02-25T04:00:19.810Z,70.50
2019-02-25T04:03:13.872Z,70.70
2019-02-25T04:05:45.387Z,71.00
2019-02-25T04:08:16.637Z,71.10
2019-02-25T04:11:01.182Z,71.30
2019-02-25T04:13:45.865Z,71.80
2019-02-25T04:16:20.683Z,72.00
2019-02-25T04:18:54.125Z,72.40
2019-02-25T04:22:12.816Z,72.70
2019-02-25T04:24:52.583Z,72.90
2019-02-25T04:27:48.323Z,72.90
2019-02-25T04:30:46.246Z,72.70
2019-02-25T04:33:19.998Z,71.70
2019-02-25T04:35:53.971Z,71.70
2019-02-25T04:38:46.602Z,72.00
2019-02-25T04:41:37.829Z,72.20
2019-02-25T04:44:39.706Z,71.80
2019-02-25T04:47:15.171Z,71.60
2019-02-25T04:50:05.170Z,71.60
2019-02-25T04:52:50.603Z,71.50
2019-02-25T04:55:47.235Z,71.70
2019-02-25T04:58:18.191Z,71.00
2019-02-25T05:04:12.690Z,71.50
2019-02-25T05:06:43.719Z,71.50
2019-02-25T05:09:18.467Z,72.10
2019-02-25T05:11:49.391Z,72.10
2019-02-25T05:14:20.856Z,71.50
2019-02-25T05:19:47.367Z,72.30
2019-02-25T05:22:27.868Z,72.00
2019-02-25T05:25:16.802Z,71.70
2019-02-25T05:27:49.671Z,71.40
2019-02-25T05:30:40.882Z,72.00
2019-02-25T05:33:17.615Z,72.20
2019-02-25T05:35:54.142Z,72.60
2019-02-25T05:38:30.685Z,72.90
2019-02-25T05:41:12.302Z,72.70
2019-02-25T05:43:46.721Z,73.50
2019-02-25T05:46:20.699Z,72.60
2019-02-25T05:49:04.285Z,73.20
2019-02-25T05:51:35.191Z,73.20
2019-02-25T05:54:08.031Z,73.50
2019-02-25T05:56:43.685Z,74.10
2019-02-25T05:59:23.928Z,73.40
2019-02-25T06:02:07.986Z,74.00
2019-02-25T06:04:44.239Z,73.50
2019-02-25T06:07:38.524Z,73.40
2019-02-25T06:10:09.741Z,73.00
2019-02-25T06:12:43.939Z,72.70
2019-02-25T06:15:17.817Z,73.00
2019-02-25T06:18:10.013Z,73.00
2019-02-25T06:20:59.009Z,73.00
2019-02-25T06:23:39.469Z,73.30
2019-02-25T06:26:13.516Z,73.30
2019-02-25T06:29:05.108Z,73.10
2019-02-25T06:31:38.218Z,72.70
2019-02-25T06:34:12.769Z,72.60
2019-02-25T06:37:02.975Z,72.50
2019-02-25T06:39:39.808Z,71.50
2019-02-25T06:42:10.788Z,70.80
2019-02-25T06:44:42.044Z,70.00
2019-02-25T06:47:33.985Z,68.90
2019-02-25T06:50:39.617Z,68.30
2019-02-25T06:56:41.146Z,67.80
2019-02-25T06:59:31.999Z,66.50
2019-02-25T07:02:14.606Z,61.10
2019-02-25T07:05:32.399Z,54.10
2019-02-25T07:08:40.567Z,49.50
2019-02-25T07:12:02.625Z,42.80
2019-02-25T07:15:02.730Z,38.60
2019-02-25T07:18:11.693Z,34.40
2019-02-25T07:21:38.675Z,31.20
2019-02-25T07:25:19.787Z,29.60
2019-02-25T07:28:30.273Z,27.20
2019-02-25T07:31:41.033Z,24.30
2019-02-25T07:34:47.924Z,24.20
2019-02-25T07:37:44.755Z,22.60
2019-02-25T07:48:33.665Z,20.60
2019-02-25T07:58:49.699Z,19.20
2019-02-25T08:01:12.375Z,18.60
2019-02-25T08:04:23.650Z,18.30
2019-02-25T08:07:19.479Z,17.40
2019-02-25T08:10:20.931Z,16.80
2019-02-25T08:13:42.919Z,16.10
2019-02-25T08:19:26.069Z,15.40
2019-02-25T08:22:19.530Z,15.20
2019-02-25T08:25:09.197Z,15.20
2019-02-25T08:27:59.476Z,15.20
2019-02-25T08:30:40.878Z,14.40
2019-02-25T08:33:30.851Z,14.30
2019-02-25T08:37:10.638Z,14.50
2019-02-25T08:39:51.731Z,13.50
2019-02-25T08:42:47.152Z,12.60
2019-02-25T08:45:55.461Z,12.60
2019-02-25T08:48:35.682Z,12.40
2019-02-25T08:51:06.609Z,12.40
2019-02-25T08:53:37.454Z,12.30
2019-02-25T08:56:08.525Z,11.70
2019-02-25T08:58:39.467Z,12.50
2019-02-25T09:01:12.090Z,12.50
2019-02-25T09:03:44.804Z,11.80
2019-02-25T09:06:15.650Z,11.80
2019-02-25T09:08:46.642Z,11.50
2019-02-25T09:11:19.359Z,10.40
2019-02-25T09:13:50.139Z,10.20
2019-02-25T09:16:21.667Z,10.00
2019-02-25T09:18:52.565Z,10.80
2019-02-25T09:21:31.582Z,11.20
2019-02-25T09:23:56.500Z,10.10
2019-02-25T09:26:27.212Z,9.80
2019-02-25T09:28:57.938Z,9.90
2019-02-25T09:31:29.014Z,9.60
2019-02-25T09:34:00.028Z,9.40
2019-02-25T09:36:30.841Z,9.10
2019-02-25T09:39:01.796Z,8.90
2019-02-25T09:41:32.637Z,9.10
2019-02-25T09:44:03.634Z,9.00
2019-02-25T09:46:34.363Z,9.20
2019-02-25T09:49:05.146Z,9.30
2019-02-25T09:51:36.072Z,9.10
2019-02-25T09:54:06.737Z,9.00
2019-02-25T09:56:37.483Z,8.70
2019-02-25T09:59:08.321Z,8.50
2019-02-25T10:01:39.246Z,8.30
2019-02-25T10:04:09.968Z,8.50
2019-02-25T10:06:40.980Z,8.40
2019-02-25T10:09:11.735Z,8.90
2019-02-25T10:11:42.521Z,8.00
2019-02-25T10:14:14.169Z,8.10
2019-02-25T10:19:11.930Z,8.10
2019-02-25T10:21:42.702Z,7.80
2019-02-25T10:24:13.417Z,7.90
2019-02-25T10:26:44.265Z,8.10
2019-02-25T10:29:15.294Z,8.10
2019-02-25T10:31:46.729Z,8.30
2019-02-25T10:34:18.095Z,8.00
2019-02-25T10:36:50.287Z,7.90
2019-02-25T10:39:21.927Z,8.00
2019-02-25T10:41:53.300Z,7.80
2019-02-25T10:44:24.987Z,7.70
2019-02-25T10:46:55.962Z,7.40
2019-02-25T10:49:28.747Z,7.60
2019-02-25T10:51:59.242Z,7.20
2019-02-25T10:54:29.905Z,7.00
2019-02-25T10:57:06.608Z,7.20
2019-02-25T10:59:39.104Z,7.20
2019-02-25T11:02:17.009Z,7.20
2019-02-25T11:04:49.298Z,7.20
2019-02-25T11:07:20.351Z,7.40
2019-02-25T11:09:58.253Z,7.50
2019-02-25T11:12:30.115Z,7.30
2019-02-25T11:15:01.767Z,7.40
2019-02-25T11:17:32.652Z,7.40
2019-02-25T11:20:05.569Z,7.80
2019-02-25T11:22:37.626Z,7.80
2019-02-25T11:25:15.986Z,7.80
2019-02-25T11:27:47.241Z,8.30
2019-02-25T11:30:19.359Z,8.60
2019-02-25T11:32:53.209Z,8.60
2019-02-25T11:35:23.691Z,8.70
2019-02-25T11:37:56.662Z,8.90
2019-02-25T11:40:28.951Z,9.30
2019-02-25T11:42:59.750Z,9.80
2019-02-25T11:45:30.750Z,9.60
2019-02-25T11:48:01.333Z,10.10
2019-02-25T11:50:32.090Z,11.00
2019-02-25T11:53:02.840Z,11.40
2019-02-25T11:55:33.701Z,12.60
2019-02-25T11:58:04.597Z,12.90
2019-02-25T12:00:35.376Z,14.10
2019-02-25T12:03:06.028Z,15.40
2019-02-25T12:05:36.705Z,16.00
2019-02-25T12:08:07.477Z,17.00
2019-02-25T12:10:38.077Z,15.70
2019-02-25T12:13:08.779Z,17.20
2019-02-25T12:15:39.425Z,18.80
2019-02-25T12:18:10.359Z,19.20
2019-02-25T12:21:07.224Z,19.80
2019-02-25T12:24:22.293Z,19.60
2019-02-25T12:26:57.848Z,20.10
2019-02-25T12:32:54.314Z,20.40
2019-02-25T12:35:33.992Z,19.70
2019-02-25T12:38:18.711Z,19.50
2019-02-25T12:41:11.768Z,19.80
2019-02-25T12:44:14.567Z,18.10
2019-02-25T12:47:30.022Z,17.00
2019-02-25T12:50:22.160Z,16.40
2019-02-25T12:55:51.701Z,16.60
2019-02-25T12:58:24.419Z,17.10
2019-02-25T13:01:17.733Z,18.20
2019-02-25T13:04:18.607Z,18.50
2019-02-25T13:06:59.865Z,19.20
2019-02-25T13:09:30.862Z,20.90
2019-02-25T13:12:01.587Z,21.40
2019-02-25T13:14:32.461Z,21.60
2019-02-25T13:17:03.237Z,21.30
2019-02-25T13:19:34.206Z,21.00
2019-02-25T13:22:05.023Z,21.50
2019-02-25T13:24:46.292Z,21.70
2019-02-25T13:27:17.245Z,21.20
2019-02-25T13:29:49.668Z,20.40
2019-02-25T13:32:20.814Z,20.40
2019-02-25T13:34:51.831Z,20.10
2019-02-25T13:37:22.719Z,19.50
2019-02-25T13:39:53.625Z,19.50
2019-02-25T13:42:24.618Z,19.70
2019-02-25T13:44:55.468Z,21.20
2019-02-25T13:47:26.528Z,22.00
2019-02-25T13:49:57.534Z,22.40
2019-02-25T13:52:28.481Z,22.10
2019-02-25T13:54:59.391Z,21.70
2019-02-25T13:57:30.264Z,21.00
2019-02-25T14:00:01.368Z,19.80
2019-02-25T14:02:32.209Z,19.60
2019-02-25T14:05:03.797Z,18.30
2019-02-25T14:07:34.457Z,18.90
2019-02-25T14:10:07.995Z,19.50
2019-02-25T14:12:38.986Z,19.70
2019-02-25T14:15:09.980Z,19.80
2019-02-25T14:17:41.380Z,19.50
2019-02-25T14:20:17.147Z,19.90
2019-02-25T14:22:48.590Z,17.70
2019-02-25T14:25:21.531Z,17.30
2019-02-25T14:27:52.669Z,17.40
2019-02-25T14:30:26.867Z,18.10
2019-02-25T14:32:58.491Z,18.20
2019-02-25T14:35:32.296Z,18.20
2019-02-25T14:38:07.462Z,18.80
2019-02-25T14:40:39.394Z,19.00
2019-02-25T14:43:12.601Z,19.70
2019-02-25T14:45:41.897Z,20.00
2019-02-25T14:48:18.146Z,21.20
2019-02-25T14:50:50.809Z,20.60
2019-02-25T14:53:21.787Z,21.30
2019-02-25T14:55:55.275Z,22.20
2019-02-25T14:58:25.214Z,22.20
2019-02-25T15:00:55.835Z,22.30
2019-02-25T15:03:28.692Z,22.30
2019-02-25T15:05:59.615Z,22.30
2019-02-25T15:08:33.139Z,22.20
2019-02-25T15:11:07.114Z,22.10
2019-02-25T15:13:39.127Z,22.50
2019-02-25T15:16:10.216Z,22.70
2019-02-25T15:18:43.945Z,23.00
2019-02-25T15:21:17.812Z,21.70
2019-02-25T15:23:48.738Z,21.80
2019-02-25T15:26:21.556Z,21.70
2019-02-25T15:28:56.064Z,22.30
2019-02-25T15:31:25.169Z,22.40
2019-02-25T15:33:58.180Z,22.70
2019-02-25T15:36:32.031Z,23.20
2019-02-25T15:39:05.454Z,23.30
2019-02-25T15:41:38.509Z,23.10
2019-02-25T15:44:23.676Z,21.80
2019-02-25T15:46:54.909Z,22.00
2019-02-25T15:49:29.006Z,22.60
2019-02-25T15:51:59.789Z,23.00
2019-02-25T15:54:32.764Z,24.30
2019-02-25T15:57:03.405Z,24.60
2019-02-25T15:59:35.921Z,25.40
2019-02-25T16:02:09.392Z,25.60
2019-02-25T16:04:42.211Z,26.30
2019-02-25T16:07:13.244Z,26.20
2019-02-25T16:09:44.633Z,26.50
2019-02-25T16:12:15.558Z,26.70
2019-02-25T16:14:47.209Z,27.20
2019-02-25T16:17:19.040Z,27.30
2019-02-25T16:19:53.125Z,27.70
2019-02-25T16:22:25.788Z,28.60
2019-02-25T16:24:56.974Z,29.00
2019-02-25T16:27:29.191Z,28.50
2019-02-25T16:30:00.651Z,28.60
2019-02-25T16:32:32.481Z,28.70
2019-02-25T16:35:04.969Z,29.20
2019-02-25T16:37:36.050Z,30.10
2019-02-25T16:40:10.423Z,30.80
2019-02-25T16:42:41.454Z,31.00
2019-02-25T16:45:17.196Z,32.10
2019-02-25T16:47:48.094Z,32.70
2019-02-25T16:50:20.949Z,33.30
2019-02-25T16:52:51.880Z,32.90
2019-02-25T16:55:25.067Z,32.50
2019-02-25T16:57:55.483Z,32.60
2019-02-25T17:00:29.407Z,32.40
2019-02-25T17:03:01.391Z,32.40
2019-02-25T17:05:30.904Z,32.80
2019-02-25T17:08:03.407Z,33.10
2019-02-25T17:10:34.126Z,33.70
2019-02-25T17:13:05.859Z,34.20
2019-02-25T17:15:37.386Z,34.70
2019-02-25T17:18:08.099Z,35.40
2019-02-25T17:20:38.667Z,35.50
2019-02-25T17:23:10.187Z,35.40
2019-02-25T17:25:43.340Z,35.70
2019-02-25T17:28:15.324Z,35.80
2019-02-25T17:30:47.356Z,37.30
2019-02-25T17:33:18.330Z,38.00
2019-02-25T17:35:49.857Z,37.70
2019-02-25T17:38:23.006Z,37.80
2019-02-25T17:40:53.816Z,37.90
2019-02-25T17:43:24.496Z,38.10
2019-02-25T17:45:56.382Z,38.50
2019-02-25T17:48:27.628Z,37.90
2019-02-25T17:50:59.895Z,38.00
2019-02-25T17:53:32.320Z,37.60
2019-02-25T17:56:04.731Z,37.30
2019-02-25T17:58:35.950Z,37.80
2019-02-25T18:01:09.597Z,37.60
2019-02-25T18:03:43.480Z,38.20
2019-02-25T18:06:16.658Z,38.10
2019-02-25T18:08:47.859Z,38.20
2019-02-25T18:11:20.279Z,38.50
2019-02-25T18:13:53.357Z,38.50
2019-02-25T18:16:24.422Z,39.20
2019-02-25T18:18:57.302Z,39.30
2019-02-25T18:21:28.954Z,39.30
2019-02-25T18:23:59.729Z,39.80
2019-02-25T18:26:31.109Z,39.40
2019-02-25T18:29:07.301Z,39.70
2019-02-25T18:31:37.967Z,39.40
2019-02-25T18:34:11.226Z,39.80
2019-02-25T18:36:42.586Z,40.20
2019-02-25T18:39:17.686Z,40.60
2019-02-25T18:41:48.770Z,40.80
2019-02-25T18:44:20.588Z,40.90
2019-02-25T18:46:52.321Z,40.80
2019-02-25T18:49:26.635Z,41.70
2019-02-25T18:51:57.308Z,42.70
2019-02-25T18:54:28.383Z,43.20
2019-02-25T18:57:00.762Z,43.30
2019-02-25T18:59:31.497Z,42.50
2019-02-25T19:02:07.453Z,42.50
2019-02-25T19:04:39.214Z,43.40
2019-02-25T19:07:10.498Z,43.30
2019-02-25T19:09:43.077Z,43.80
2019-02-25T19:12:13.999Z,44.40
2019-02-25T19:14:51.078Z,45.40
2019-02-25T19:17:20.970Z,45.80
2019-02-25T19:19:53.589Z,45.80
2019-02-25T19:22:24.486Z,46.00
2019-02-25T19:24:55.285Z,46.40
2019-02-25T19:27:27.746Z,45.60
2019-02-25T19:30:00.248Z,45.80
2019-02-25T19:32:33.405Z,45.30
2019-02-25T19:35:06.860Z,45.30
2019-02-25T19:37:38.216Z,45.80
2019-02-25T19:40:13.948Z,45.80
2019-02-25T19:42:47.298Z,45.80
2019-02-25T19:45:17.447Z,46.10
2019-02-25T19:47:48.379Z,45.50
2019-02-25T19:50:50.270Z,45.90
2019-02-25T19:53:04.825Z,46.40
2019-02-25T19:55:36.147Z,47.10
2019-02-25T19:58:08.295Z,47.00
2019-02-25T20:00:38.960Z,47.50
2019-02-25T20:03:09.667Z,47.30
2019-02-25T20:05:44.231Z,47.30
2019-02-25T20:08:14.581Z,47.30
2019-02-25T20:10:45.247Z,47.80
2019-02-25T20:13:15.824Z,48.20
2019-02-25T20:15:47.318Z,49.30
2019-02-25T20:18:19.112Z,50.40
2019-02-25T20:20:51.491Z,51.00
2019-02-25T20:23:22.815Z,51.50
2019-02-25T20:25:55.746Z,52.10
2019-02-25T20:28:29.166Z,52.60
2019-02-25T20:31:00.082Z,52.90
2019-02-25T20:33:33.016Z,52.20
2019-02-25T20:36:03.272Z,52.60
2019-02-25T20:38:34.789Z,53.60
2019-02-25T20:41:06.311Z,54.70
2019-02-25T20:43:37.115Z,55.30
2019-02-25T20:46:08.674Z,55.30
2019-02-25T20:48:39.398Z,55.50
2019-02-25T20:51:15.349Z,55.70
2019-02-25T20:53:46.678Z,56.00
2019-02-25T20:56:18.333Z,56.40
2019-02-25T20:58:49.233Z,56.90
2019-02-25T21:01:20.951Z,57.00
2019-02-25T21:03:52.678Z,57.50
2019-02-25T21:06:24.325Z,58.00
2019-02-25T21:08:54.975Z,58.30
2019-02-25T21:11:25.564Z,58.40
2019-02-25T21:13:56.713Z,59.10
2019-02-25T21:17:03.193Z,59.20
2019-02-25T21:19:37.882Z,59.40
2019-02-25T21:22:33.840Z,59.40
2019-02-25T21:25:07.281Z,60.20
2019-02-25T21:27:40.838Z,60.80
2019-02-25T21:30:37.181Z,61.60
2019-02-25T21:33:06.970Z,62.50
2019-02-25T21:38:41.890Z,64.10
2019-02-25T21:41:41.814Z,64.40
2019-02-25T21:48:07.668Z,64.60
2019-02-25T21:51:09.734Z,64.20
2019-02-25T21:53:46.745Z,64.30
2019-02-25T21:56:37.068Z,64.00
2019-02-25T21:59:08.750Z,64.00
2019-02-25T22:01:41.079Z,64.10
2019-02-25T22:07:17.126Z,63.60
2019-02-25T22:10:03.960Z,63.30
2019-02-25T22:12:46.443Z,63.40
2019-02-25T22:15:22.084Z,63.10
2019-02-25T22:18:04.410Z,63.40
2019-02-25T22:20:39.694Z,62.30
2019-02-25T22:23:21.983Z,61.00
2019-02-25T22:26:03.273Z,62.80
2019-02-25T22:28:39.326Z,62.70
2019-02-25T22:31:13.248Z,62.20
2019-02-25T22:34:03.631Z,61.90
2019-02-25T22:36:39.472Z,62.50
2019-02-25T22:39:33.874Z,62.80
2019-02-25T22:42:14.320Z,62.60
2019-02-25T22:44:56.152Z,62.90
2019-02-25T22:47:38.307Z,63.10
2019-02-25T22:50:15.580Z,63.20
2019-02-25T22:53:03.633Z,63.40
2019-02-25T22:55:44.683Z,64.50
2019-02-25T22:58:19.024Z,64.60
2019-02-25T23:01:04.662Z,64.80
2019-02-25T23:03:44.949Z,64.80
2019-02-25T23:06:18.451Z,64.80
2019-02-25T23:08:56.453Z,64.90
2019-02-25T23:11:34.390Z,65.30
2019-02-25T23:14:15.827Z,65.70
2019-02-25T23:17:08.840Z,65.90
2019-02-25T23:19:59.986Z,66.80
2019-02-25T23:22:38.739Z,67.90
2019-02-25T23:25:07.577Z,68.60
2019-02-25T23:27:38.989Z,68.80
2019-02-25T23:30:12.759Z,68.60
2019-02-25T23:32:47.263Z,68.60
2019-02-25T23:35:23.135Z,68.50
2019-02-25T23:37:56.733Z,69.30
2019-02-25T23:40:40.160Z,69.70
2019-02-25T23:43:14.949Z,69.70
2019-02-25T23:46:06.223Z,71.00
2019-02-25T23:51:37.186Z,72.30
2019-02-25T23:54:09.509Z,71.70
2019-02-25T23:56:43.906Z,71.80
2019-02-25T23:59:30.112Z,72.30
